Time;durP1;ratioP1;P1;durP2;ratioP2;P2;SDS_P1;SDS_P2;PMS_P1;PMS_P2;Temp;Humidity;BMP_temperature;BMP_pressure;BME280_temperature;BME280_humidity;BME280_pressure;Samples;Min_cycle;Max_cycle;Signal;HPM_P1;HPM_P2
2022/03/05 00:01:13;;;;;;;16.23;7.15;;;;;;;3.73;67.19;101164.40;713498;1174;115352;-75
2022/03/05 00:16:15;;;;;;;35.23;12.40;;;;;;;3.76;66.67;101163.42;713565;1175;115412;-75
2022/03/05 00:31:17;;;;;;;106.70;28.33;;;;;;;3.67;64.75;101159.51;713261;1174;115444;-75
2022/03/05 00:46:20;;;;;;;56.90;16.20;;;;;;;3.70;64.61;101143.78;713305;1174;115290;-76
2022/03/05 01:01:23;;;;;;;45.43;14.13;;;;;;;3.43;64.93;101146.72;713435;1176;114892;-75
2022/03/05 01:16:25;;;;;;;32.03;11.65;;;;;;;3.05;66.89;101141.45;713397;1174;114982;-75
2022/03/05 01:31:28;;;;;;;33.57;12.33;;;;;;;2.84;68.80;101161.34;713647;1176;114594;-75
2022/03/05 01:46:35;;;;;;;35.95;12.20;;;;;;;2.74;69.40;101163.46;713859;1175;114600;-75
2022/03/05 02:01:38;;;;;;;35.33;12.83;;;;;;;2.70;70.97;101166.26;713581;1174;115225;-75
2022/03/05 02:16:40;;;;;;;32.95;13.85;;;;;;;2.61;71.38;101152.78;713690;1174;114136;-75
2022/03/05 02:31:43;;;;;;;52.10;19.47;;;;;;;2.40;72.13;101158.81;713296;1175;116165;-75
2022/03/05 02:46:45;;;;;;;38.95;14.65;;;;;;;2.31;72.62;101152.27;713142;1174;115649;-75
2022/03/05 03:01:47;;;;;;;35.75;14.15;;;;;;;2.18;73.00;101159.67;713135;1174;115313;-75
2022/03/05 03:16:50;;;;;;;27.45;11.50;;;;;;;2.02;73.24;101167.19;713520;1174;114572;-76
2022/03/05 03:31:53;;;;;;;71.45;17.95;;;;;;;1.72;74.07;101164.84;713315;1175;115693;-75
2022/03/05 03:46:56;;;;;;;48.38;16.83;;;;;;;1.64;74.35;101164.28;713414;1174;114839;-74
2022/03/05 04:01:58;;;;;;;90.80;26.08;;;;;;;1.30;74.20;101152.56;713596;1177;114145;-75
2022/03/05 04:17:01;;;;;;;248.33;58.57;;;;;;;1.09;74.44;101167.08;713229;1174;115197;-74
2022/03/05 04:32:07;;;;;;;148.88;42.23;;;;;;;0.98;75.55;101175.20;713557;1174;115781;-75
2022/03/05 04:47:09;;;;;;;199.28;47.85;;;;;;;0.95;75.56;101185.63;713380;1174;115958;-75
2022/03/05 05:02:11;;;;;;;81.15;23.15;;;;;;;0.96;75.32;101192.49;713697;1174;115089;-74
2022/03/05 05:17:14;;;;;;;41.98;17.48;;;;;;;0.97;75.71;101194.19;713774;1175;114367;-74
2022/03/05 05:32:17;;;;;;;70.13;26.40;;;;;;;1.10;75.76;101199.80;713865;1175;115819;-75
2022/03/05 05:47:21;;;;;;;116.50;48.10;;;;;;;1.20;76.40;101224.44;713388;1175;115546;-75
2022/03/05 06:02:24;;;;;;;153.53;54.08;;;;;;;1.45;76.67;101227.02;713698;1174;115516;-74
2022/03/05 06:17:26;;;;;;;155.33;58.13;;;;;;;1.69;77.35;101239.13;713876;1177;115227;-75
2022/03/05 06:32:28;;;;;;;107.30;46.97;;;;;;;2.02;77.77;101249.16;714399;1177;115904;-76
2022/03/05 06:47:34;;;;;;;58.85;23.20;;;;;;;2.36;78.04;101253.91;713672;1175;115269;-75
2022/03/05 07:02:42;;;;;;;45.65;20.35;;;;;;;3.16;78.53;101257.67;714418;1176;114163;-78
2022/03/05 07:17:49;;;;;;;56.20;23.33;;;;;;;4.70;77.83;101267.31;715224;1174;114685;-81
2022/03/05 07:32:51;;;;;;;27.30;14.03;;;;;;;5.79;74.83;101268.84;715547;1174;114983;-82
2022/03/05 07:47:53;;;;;;;30.53;14.18;;;;;;;6.28;73.90;101270.63;714715;1177;115535;-76
2022/03/05 08:02:56;;;;;;;54.55;19.35;;;;;;;6.99;71.53;101283.20;714239;1176;115753;-79
2022/03/05 08:18:01;;;;;;;24.65;10.63;;;;;;;7.30;68.66;101291.03;714156;1175;114760;-79
2022/03/05 08:33:03;;;;;;;31.83;13.17;;;;;;;7.91;62.23;101296.97;715192;1175;114153;-79
2022/03/05 08:48:06;;;;;;;45.93;15.25;;;;;;;8.46;61.32;101297.16;716346;1174;114985;-78
2022/03/05 09:03:09;;;;;;;11.60;5.87;;;;;;;8.88;59.22;101302.34;714812;1175;115407;-81
2022/03/05 09:18:12;;;;;;;50.95;27.55;;;;;;;9.08;57.88;101309.74;717919;1174;115349;-76
2022/03/05 09:33:14;;;;;;;8.60;5.05;;;;;;;9.43;54.31;101324.88;713852;1176;114098;-76
2022/03/05 09:48:17;;;;;;;13.27;5.97;;;;;;;9.68;53.88;101306.70;715575;1174;114035;-75
2022/03/05 10:03:22;;;;;;;17.30;6.17;;;;;;;8.96;52.40;101305.29;714394;1174;114728;-76
2022/03/05 10:18:29;;;;;;;17.40;6.58;;;;;;;8.38;51.50;101310.67;714338;1174;114786;-75
2022/03/05 10:33:46;;;;;;;10.10;3.93;;;;;;;8.28;50.46;101306.95;713991;1174;114097;-74
2022/03/05 10:48:48;;;;;;;19.30;8.10;;;;;;;7.63;50.63;101305.64;713613;1174;115589;-73
2022/03/05 11:03:54;;;;;;;8.35;3.48;;;;;;;8.31;50.20;101304.13;714024;1174;115347;-73
2022/03/05 11:18:57;;;;;;;20.27;8.50;;;;;;;10.31;49.65;101297.91;713910;1174;115136;-75
2022/03/05 11:34:18;;;;;;;11.13;4.83;;;;;;;9.24;49.49;101293.03;713986;1174;114663;-73
2022/03/05 11:49:21;;;;;;;231.28;82.53;;;;;;;8.67;48.71;101281.88;714341;1175;114752;-78
2022/03/05 12:04:27;;;;;;;96.95;38.40;;;;;;;8.59;47.71;101273.66;713993;1174;115448;-74
2022/03/05 12:19:30;;;;;;;18.03;8.63;;;;;;;9.43;49.34;101267.27;714150;1175;115849;-76
2022/03/05 12:34:35;;;;;;;15.08;6.85;;;;;;;9.06;47.38;101259.26;714062;1174;114655;-72
2022/03/05 12:49:38;;;;;;;7.25;4.10;;;;;;;8.72;48.41;101248.38;713945;1177;115341;-80
2022/03/05 13:04:41;;;;;;;12.50;4.13;;;;;;;8.71;48.65;101251.95;714112;1174;115170;-72
2022/03/05 13:19:57;;;;;;;21.40;8.05;;;;;;;8.45;47.76;101250.98;714004;1175;113888;-75
2022/03/05 13:35:06;;;;;;;22.00;8.03;;;;;;;7.95;47.44;101243.59;714801;1177;115906;-76
2022/03/05 13:50:10;;;;;;;36.98;12.08;;;;;;;7.76;48.63;101249.12;717150;1167;114414;-76
2022/03/05 14:05:17;;;;;;;43.05;18.35;;;;;;;7.71;47.83;101243.33;715019;1174;115440;-78
2022/03/05 14:20:28;;;;;;;10.18;5.20;;;;;;;7.60;48.69;101243.13;713806;1177;114478;-76
2022/03/05 14:35:31;;;;;;;12.90;6.88;;;;;;;7.07;48.33;101243.59;713705;1176;114503;-75
2022/03/05 14:50:35;;;;;;;43.67;17.97;;;;;;;14.83;47.68;101240.71;713251;1174;114843;-76
2022/03/05 15:05:38;;;;;;;13.67;6.20;;;;;;;22.22;41.87;101235.94;713512;1176;114912;-77
2022/03/05 15:20:43;;;;;;;128.43;45.95;;;;;;;16.49;38.80;101235.80;713691;1174;114320;-77
2022/03/05 15:35:46;;;;;;;29.77;13.47;;;;;;;12.80;40.53;101229.11;713509;1175;115474;-76
2022/03/05 15:50:49;;;;;;;33.98;16.83;;;;;;;12.71;41.49;101229.87;713942;1174;115162;-76
2022/03/05 16:05:52;;;;;;;48.83;22.90;;;;;;;13.77;40.50;101233.28;713628;1174;115666;-77
2022/03/05 16:20:55;;;;;;;105.98;35.05;;;;;;;9.23;41.99;101231.95;713386;1174;115227;-76
2022/03/05 16:35:58;;;;;;;73.75;32.73;;;;;;;6.66;44.90;101249.42;713488;1174;114462;-77
2022/03/05 16:51:02;;;;;;;179.03;61.50;;;;;;;5.57;46.07;101243.94;713367;1177;114895;-76
2022/03/05 17:06:05;;;;;;;64.00;29.10;;;;;;;4.62;47.57;101255.53;713319;1174;115258;-76
2022/03/05 17:21:08;;;;;;;184.23;65.43;;;;;;;4.12;49.86;101264.77;713971;1175;115443;-80
2022/03/05 17:36:11;;;;;;;70.98;33.50;;;;;;;3.59;50.35;101255.00;714054;1174;115111;-80
2022/03/05 17:51:14;;;;;;;112.30;43.08;;;;;;;3.40;52.06;101266.16;714233;1176;115052;-78
2022/03/05 18:06:17;;;;;;;84.43;31.53;;;;;;;3.16;52.24;101265.45;714256;1174;114997;-79
2022/03/05 18:21:20;;;;;;;136.60;46.33;;;;;;;3.27;53.21;101265.00;714285;1174;114222;-79
2022/03/05 18:36:23;;;;;;;301.75;79.65;;;;;;;3.11;54.01;101262.20;714333;1174;114689;-78
2022/03/05 18:51:25;;;;;;;169.25;52.23;;;;;;;3.11;54.40;101265.63;714186;1177;115621;-80
2022/03/05 19:06:28;;;;;;;372.70;90.85;;;;;;;2.81;54.77;101265.98;713967;1177;115909;-80
2022/03/05 19:21:34;;;;;;;113.23;43.23;;;;;;;2.38;55.93;101267.65;714584;1175;115457;-79
2022/03/05 19:36:38;;;;;;;265.23;88.68;;;;;;;2.24;56.57;101262.98;714128;1174;115122;-79
2022/03/05 19:51:41;;;;;;;180.28;64.85;;;;;;;2.09;57.05;101268.75;714317;1174;116124;-78
2022/03/05 20:06:43;;;;;;;124.63;42.00;;;;;;;1.89;57.53;101275.49;713892;1175;115359;-80
2022/03/05 20:21:45;;;;;;;181.00;62.55;;;;;;;1.64;58.40;101276.35;713745;1175;115773;-80
2022/03/05 20:36:48;;;;;;;176.25;56.15;;;;;;;1.39;59.28;101268.59;714166;1175;114750;-78
2022/03/05 20:51:51;;;;;;;162.70;56.85;;;;;;;1.02;59.08;101274.99;714146;1174;114908;-79
2022/03/05 21:06:54;;;;;;;277.67;88.33;;;;;;;0.77;60.20;101267.18;714647;1175;114519;-78
2022/03/05 21:21:57;;;;;;;292.23;88.70;;;;;;;0.69;60.37;101259.67;714149;1177;114395;-80
2022/03/05 21:36:59;;;;;;;255.80;75.07;;;;;;;0.47;60.48;101265.47;715361;1174;115754;-78
2022/03/05 21:52:03;;;;;;;535.70;144.57;;;;;;;0.32;61.60;101268.53;714422;1174;114425;-80
2022/03/05 22:07:06;;;;;;;138.50;52.00;;;;;;;0.18;62.17;101279.25;713682;1176;114862;-78
2022/03/05 22:22:08;;;;;;;150.37;50.27;;;;;;;-0.09;61.85;101283.44;713312;1174;115881;-78
2022/03/05 22:37:11;;;;;;;214.33;64.97;;;;;;;-0.18;62.37;101281.98;713472;1175;116233;-78
2022/03/05 22:52:13;;;;;;;156.90;50.50;;;;;;;-0.41;62.70;101288.61;713296;1174;115454;-78
2022/03/05 23:22:36;;;;;;;103.75;34.75;;;;;;;-0.64;63.80;101281.45;713539;1177;114655;-77
2022/03/05 23:37:41;;;;;;;134.00;43.85;;;;;;;-0.87;64.31;101275.15;713407;1174;114599;-78
2022/03/05 23:52:43;;;;;;;159.70;46.10;;;;;;;-0.93;64.91;101290.75;713657;1177;115840;-78
